sensor_id;sensor_type;location;lat;lon;timestamp;temperature;humidity
81842;DHT22;71284;50.918;7.092;2023-07-13T00:02:06;21.60;39.90
81842;DHT22;71284;50.918;7.092;2023-07-13T00:04:33;21.60;40.30
81842;DHT22;71284;50.918;7.092;2023-07-13T00:06:59;21.40;41.00
81842;DHT22;71284;50.918;7.092;2023-07-13T00:09:26;21.50;40.90
81842;DHT22;71284;50.918;7.092;2023-07-13T00:11:54;21.40;41.20
81842;DHT22;71284;50.918;7.092;2023-07-13T00:14:19;21.30;41.50
81842;DHT22;71284;50.918;7.092;2023-07-13T00:16:46;21.30;41.60
81842;DHT22;71284;50.918;7.092;2023-07-13T00:19:13;21.20;41.50
81842;DHT22;71284;50.918;7.092;2023-07-13T00:21:39;21.10;41.60
81842;DHT22;71284;50.918;7.092;2023-07-13T00:24:06;21.10;41.90
81842;DHT22;71284;50.918;7.092;2023-07-13T00:26:32;21.10;42.20
81842;DHT22;71284;50.918;7.092;2023-07-13T00:28:59;21.10;41.80
81842;DHT22;71284;50.918;7.092;2023-07-13T00:31:25;20.90;42.70
81842;DHT22;71284;50.918;7.092;2023-07-13T00:33:52;20.90;42.60
81842;DHT22;71284;50.918;7.092;2023-07-13T00:36:19;21.00;42.20
81842;DHT22;71284;50.918;7.092;2023-07-13T00:38:45;21.00;42.60
81842;DHT22;71284;50.918;7.092;2023-07-13T00:41:12;20.90;43.10
81842;DHT22;71284;50.918;7.092;2023-07-13T00:43:38;20.90;43.00
81842;DHT22;71284;50.918;7.092;2023-07-13T00:46:13;20.80;43.50
81842;DHT22;71284;50.918;7.092;2023-07-13T00:48:37;20.80;43.50
81842;DHT22;71284;50.918;7.092;2023-07-13T00:51:03;20.60;43.70
81842;DHT22;71284;50.918;7.092;2023-07-13T00:53:30;20.60;43.80
81842;DHT22;71284;50.918;7.092;2023-07-13T00:55:57;20.70;43.60
81842;DHT22;71284;50.918;7.092;2023-07-13T00:58:26;20.70;43.90
81842;DHT22;71284;50.918;7.092;2023-07-13T01:00:50;20.80;43.60
81842;DHT22;71284;50.918;7.092;2023-07-13T01:03:17;20.80;43.60
81842;DHT22;71284;50.918;7.092;2023-07-13T01:05:43;20.70;44.20
81842;DHT22;71284;50.918;7.092;2023-07-13T01:08:10;20.60;43.90
81842;DHT22;71284;50.918;7.092;2023-07-13T01:10:36;20.60;44.30
81842;DHT22;71284;50.918;7.092;2023-07-13T01:13:06;20.50;44.70
81842;DHT22;71284;50.918;7.092;2023-07-13T01:15:40;20.50;44.70
81842;DHT22;71284;50.918;7.092;2023-07-13T01:18:07;20.50;44.30
81842;DHT22;71284;50.918;7.092;2023-07-13T01:20:33;20.40;44.60
81842;DHT22;71284;50.918;7.092;2023-07-13T01:23:00;20.30;44.80
81842;DHT22;71284;50.918;7.092;2023-07-13T01:25:26;20.30;44.70
81842;DHT22;71284;50.918;7.092;2023-07-13T01:27:53;20.30;45.00
81842;DHT22;71284;50.918;7.092;2023-07-13T01:30:19;20.30;44.70
81842;DHT22;71284;50.918;7.092;2023-07-13T01:32:46;20.30;45.30
81842;DHT22;71284;50.918;7.092;2023-07-13T01:35:13;20.10;45.60
81842;DHT22;71284;50.918;7.092;2023-07-13T01:37:39;20.00;46.80
81842;DHT22;71284;50.918;7.092;2023-07-13T01:40:06;19.90;46.40
81842;DHT22;71284;50.918;7.092;2023-07-13T01:42:33;19.70;46.60
81842;DHT22;71284;50.918;7.092;2023-07-13T01:45:00;19.50;47.40
81842;DHT22;71284;50.918;7.092;2023-07-13T01:47:26;19.10;48.40
81842;DHT22;71284;50.918;7.092;2023-07-13T01:49:53;19.00;48.50
81842;DHT22;71284;50.918;7.092;2023-07-13T01:52:19;19.00;48.50
81842;DHT22;71284;50.918;7.092;2023-07-13T01:54:46;18.90;48.90
81842;DHT22;71284;50.918;7.092;2023-07-13T01:57:13;18.80;49.00
81842;DHT22;71284;50.918;7.092;2023-07-13T01:59:39;18.90;48.90
81842;DHT22;71284;50.918;7.092;2023-07-13T02:02:06;18.90;49.40
81842;DHT22;71284;50.918;7.092;2023-07-13T02:04:33;18.80;49.60
81842;DHT22;71284;50.918;7.092;2023-07-13T02:06:59;18.70;49.80
81842;DHT22;71284;50.918;7.092;2023-07-13T02:09:26;18.60;50.20
81842;DHT22;71284;50.918;7.092;2023-07-13T02:11:52;18.40;50.90
81842;DHT22;71284;50.918;7.092;2023-07-13T02:14:19;18.20;51.60
81842;DHT22;71284;50.918;7.092;2023-07-13T02:16:45;18.10;52.00
81842;DHT22;71284;50.918;7.092;2023-07-13T02:19:12;18.20;51.70
81842;DHT22;71284;50.918;7.092;2023-07-13T02:21:38;18.40;51.20
81842;DHT22;71284;50.918;7.092;2023-07-13T02:24:05;18.30;51.50
81842;DHT22;71284;50.918;7.092;2023-07-13T02:26:32;18.20;52.10
81842;DHT22;71284;50.918;7.092;2023-07-13T02:28:58;18.10;52.60
81842;DHT22;71284;50.918;7.092;2023-07-13T02:31:25;18.00;52.80
81842;DHT22;71284;50.918;7.092;2023-07-13T02:33:51;18.10;53.00
81842;DHT22;71284;50.918;7.092;2023-07-13T02:36:18;18.10;52.60
81842;DHT22;71284;50.918;7.092;2023-07-13T02:38:45;18.10;52.80
81842;DHT22;71284;50.918;7.092;2023-07-13T02:41:11;18.20;52.40
81842;DHT22;71284;50.918;7.092;2023-07-13T02:43:38;18.20;52.10
81842;DHT22;71284;50.918;7.092;2023-07-13T02:46:04;18.20;52.20
81842;DHT22;71284;50.918;7.092;2023-07-13T02:48:31;18.10;52.70
81842;DHT22;71284;50.918;7.092;2023-07-13T02:50:58;18.00;53.20
81842;DHT22;71284;50.918;7.092;2023-07-13T02:53:24;17.90;53.10
81842;DHT22;71284;50.918;7.092;2023-07-13T02:55:51;18.00;52.70
81842;DHT22;71284;50.918;7.092;2023-07-13T02:58:17;18.00;52.90
81842;DHT22;71284;50.918;7.092;2023-07-13T03:00:45;17.90;52.90
81842;DHT22;71284;50.918;7.092;2023-07-13T03:03:11;18.00;52.50
81842;DHT22;71284;50.918;7.092;2023-07-13T03:05:37;18.10;52.20
81842;DHT22;71284;50.918;7.092;2023-07-13T03:08:04;18.00;52.60
81842;DHT22;71284;50.918;7.092;2023-07-13T03:10:30;17.90;52.80
81842;DHT22;71284;50.918;7.092;2023-07-13T03:12:57;17.90;52.70
81842;DHT22;71284;50.918;7.092;2023-07-13T03:15:23;18.00;52.60
81842;DHT22;71284;50.918;7.092;2023-07-13T03:17:50;17.90;52.70
81842;DHT22;71284;50.918;7.092;2023-07-13T03:20:17;18.10;52.30
81842;DHT22;71284;50.918;7.092;2023-07-13T03:22:43;18.00;53.00
81842;DHT22;71284;50.918;7.092;2023-07-13T03:25:10;17.90;53.50
81842;DHT22;71284;50.918;7.092;2023-07-13T03:27:37;17.70;53.60
81842;DHT22;71284;50.918;7.092;2023-07-13T03:30:04;17.50;54.00
81842;DHT22;71284;50.918;7.092;2023-07-13T03:32:31;17.30;55.50
81842;DHT22;71284;50.918;7.092;2023-07-13T03:34:57;17.30;55.00
81842;DHT22;71284;50.918;7.092;2023-07-13T03:37:24;17.20;54.90
81842;DHT22;71284;50.918;7.092;2023-07-13T03:39:50;17.10;55.10
81842;DHT22;71284;50.918;7.092;2023-07-13T03:42:17;17.10;55.10
81842;DHT22;71284;50.918;7.092;2023-07-13T03:44:44;17.20;54.70
81842;DHT22;71284;50.918;7.092;2023-07-13T03:47:11;17.20;55.00
81842;DHT22;71284;50.918;7.092;2023-07-13T03:49:38;17.30;55.20
81842;DHT22;71284;50.918;7.092;2023-07-13T03:52:05;17.30;54.90
81842;DHT22;71284;50.918;7.092;2023-07-13T03:54:31;17.30;54.40
81842;DHT22;71284;50.918;7.092;2023-07-13T03:56:58;17.40;54.40
81842;DHT22;71284;50.918;7.092;2023-07-13T03:59:25;17.40;54.30
81842;DHT22;71284;50.918;7.092;2023-07-13T04:01:51;17.30;53.90
81842;DHT22;71284;50.918;7.092;2023-07-13T04:04:18;17.50;54.30
81842;DHT22;71284;50.918;7.092;2023-07-13T04:06:44;17.70;53.30
81842;DHT22;71284;50.918;7.092;2023-07-13T04:09:11;17.80;53.30
81842;DHT22;71284;50.918;7.092;2023-07-13T04:11:38;17.40;54.60
81842;DHT22;71284;50.918;7.092;2023-07-13T04:14:04;17.30;54.90
81842;DHT22;71284;50.918;7.092;2023-07-13T04:16:31;17.30;54.10
81842;DHT22;71284;50.918;7.092;2023-07-13T04:18:57;17.50;54.30
81842;DHT22;71284;50.918;7.092;2023-07-13T04:21:25;17.70;53.30
81842;DHT22;71284;50.918;7.092;2023-07-13T04:23:51;17.90;53.30
81842;DHT22;71284;50.918;7.092;2023-07-13T04:26:18;17.90;52.80
81842;DHT22;71284;50.918;7.092;2023-07-13T04:28:44;17.90;53.10
81842;DHT22;71284;50.918;7.092;2023-07-13T04:31:11;18.00;52.90
81842;DHT22;71284;50.918;7.092;2023-07-13T04:33:37;18.10;52.40
81842;DHT22;71284;50.918;7.092;2023-07-13T04:36:04;18.20;51.70
81842;DHT22;71284;50.918;7.092;2023-07-13T04:38:31;18.40;51.10
81842;DHT22;71284;50.918;7.092;2023-07-13T04:40:58;18.50;51.10
81842;DHT22;71284;50.918;7.092;2023-07-13T04:43:24;18.50;51.40
81842;DHT22;71284;50.918;7.092;2023-07-13T04:45:51;18.30;53.10
81842;DHT22;71284;50.918;7.092;2023-07-13T04:48:17;18.30;52.00
81842;DHT22;71284;50.918;7.092;2023-07-13T04:50:44;18.30;51.80
81842;DHT22;71284;50.918;7.092;2023-07-13T04:53:10;18.50;51.50
81842;DHT22;71284;50.918;7.092;2023-07-13T04:55:37;18.50;51.90
81842;DHT22;71284;50.918;7.092;2023-07-13T04:58:04;18.50;51.50
81842;DHT22;71284;50.918;7.092;2023-07-13T05:00:30;18.70;50.90
81842;DHT22;71284;50.918;7.092;2023-07-13T05:02:57;18.80;50.70
81842;DHT22;71284;50.918;7.092;2023-07-13T05:05:24;18.90;50.20
81842;DHT22;71284;50.918;7.092;2023-07-13T05:07:50;19.00;49.10
81842;DHT22;71284;50.918;7.092;2023-07-13T05:10:16;18.90;49.70
81842;DHT22;71284;50.918;7.092;2023-07-13T05:12:43;19.10;49.30
81842;DHT22;71284;50.918;7.092;2023-07-13T05:15:10;19.20;48.50
81842;DHT22;71284;50.918;7.092;2023-07-13T05:17:36;19.40;48.10
81842;DHT22;71284;50.918;7.092;2023-07-13T05:20:03;19.30;48.20
81842;DHT22;71284;50.918;7.092;2023-07-13T05:22:30;19.20;48.30
81842;DHT22;71284;50.918;7.092;2023-07-13T05:24:57;19.40;47.90
81842;DHT22;71284;50.918;7.092;2023-07-13T05:27:23;19.60;47.60
81842;DHT22;71284;50.918;7.092;2023-07-13T05:29:50;19.70;47.60
81842;DHT22;71284;50.918;7.092;2023-07-13T05:32:17;19.80;47.30
81842;DHT22;71284;50.918;7.092;2023-07-13T05:34:43;19.90;47.30
81842;DHT22;71284;50.918;7.092;2023-07-13T05:37:09;19.90;47.10
81842;DHT22;71284;50.918;7.092;2023-07-13T05:39:36;20.10;46.90
81842;DHT22;71284;50.918;7.092;2023-07-13T05:42:03;20.20;46.70
81842;DHT22;71284;50.918;7.092;2023-07-13T05:44:30;20.20;47.10
81842;DHT22;71284;50.918;7.092;2023-07-13T05:46:56;20.20;47.30
81842;DHT22;71284;50.918;7.092;2023-07-13T05:49:23;20.20;47.20
81842;DHT22;71284;50.918;7.092;2023-07-13T05:51:49;20.30;46.80
81842;DHT22;71284;50.918;7.092;2023-07-13T05:54:16;20.40;46.70
81842;DHT22;71284;50.918;7.092;2023-07-13T05:56:43;20.30;47.40
81842;DHT22;71284;50.918;7.092;2023-07-13T05:59:09;20.40;47.60
81842;DHT22;71284;50.918;7.092;2023-07-13T06:01:36;20.50;47.20
81842;DHT22;71284;50.918;7.092;2023-07-13T06:04:02;20.20;47.60
81842;DHT22;71284;50.918;7.092;2023-07-13T06:06:29;20.10;48.20
81842;DHT22;71284;50.918;7.092;2023-07-13T06:08:55;20.30;47.60
81842;DHT22;71284;50.918;7.092;2023-07-13T06:11:23;20.60;47.00
81842;DHT22;71284;50.918;7.092;2023-07-13T06:13:49;20.60;47.00
81842;DHT22;71284;50.918;7.092;2023-07-13T06:16:15;20.40;48.00
81842;DHT22;71284;50.918;7.092;2023-07-13T06:18:42;20.30;48.60
81842;DHT22;71284;50.918;7.092;2023-07-13T06:21:09;20.10;48.60
81842;DHT22;71284;50.918;7.092;2023-07-13T06:23:35;20.20;48.70
81842;DHT22;71284;50.918;7.092;2023-07-13T06:26:02;20.40;48.20
81842;DHT22;71284;50.918;7.092;2023-07-13T06:28:28;20.60;47.50
81842;DHT22;71284;50.918;7.092;2023-07-13T06:30:55;20.60;47.50
81842;DHT22;71284;50.918;7.092;2023-07-13T06:33:21;20.70;47.30
81842;DHT22;71284;50.918;7.092;2023-07-13T06:35:48;20.50;48.00
81842;DHT22;71284;50.918;7.092;2023-07-13T06:38:15;20.60;47.80
81842;DHT22;71284;50.918;7.092;2023-07-13T06:40:41;20.90;47.30
81842;DHT22;71284;50.918;7.092;2023-07-13T06:43:08;20.90;47.20
81842;DHT22;71284;50.918;7.092;2023-07-13T06:45:39;20.70;47.60
81842;DHT22;71284;50.918;7.092;2023-07-13T06:48:02;20.90;47.80
81842;DHT22;71284;50.918;7.092;2023-07-13T06:50:28;21.10;47.10
81842;DHT22;71284;50.918;7.092;2023-07-13T06:52:55;21.20;46.60
81842;DHT22;71284;50.918;7.092;2023-07-13T06:55:22;21.20;46.90
81842;DHT22;71284;50.918;7.092;2023-07-13T06:57:48;21.30;47.00
81842;DHT22;71284;50.918;7.092;2023-07-13T07:00:15;21.10;47.40
81842;DHT22;71284;50.918;7.092;2023-07-13T07:02:42;20.80;48.20
81842;DHT22;71284;50.918;7.092;2023-07-13T07:05:08;20.70;48.70
81842;DHT22;71284;50.918;7.092;2023-07-13T07:07:35;20.90;48.40
81842;DHT22;71284;50.918;7.092;2023-07-13T07:10:02;21.20;47.70
81842;DHT22;71284;50.918;7.092;2023-07-13T07:12:28;21.30;47.20
81842;DHT22;71284;50.918;7.092;2023-07-13T07:14:55;21.30;47.40
81842;DHT22;71284;50.918;7.092;2023-07-13T07:17:21;21.40;47.20
81842;DHT22;71284;50.918;7.092;2023-07-13T07:19:48;21.30;47.40
81842;DHT22;71284;50.918;7.092;2023-07-13T07:22:14;21.30;47.50
81842;DHT22;71284;50.918;7.092;2023-07-13T07:24:41;21.50;47.30
81842;DHT22;71284;50.918;7.092;2023-07-13T07:27:08;21.70;46.80
81842;DHT22;71284;50.918;7.092;2023-07-13T07:29:34;21.80;46.50
81842;DHT22;71284;50.918;7.092;2023-07-13T07:32:01;21.90;46.40
81842;DHT22;71284;50.918;7.092;2023-07-13T07:34:27;21.60;47.10
81842;DHT22;71284;50.918;7.092;2023-07-13T07:36:54;21.30;47.40
81842;DHT22;71284;50.918;7.092;2023-07-13T07:39:20;21.50;47.50
81842;DHT22;71284;50.918;7.092;2023-07-13T07:41:47;21.50;47.20
81842;DHT22;71284;50.918;7.092;2023-07-13T07:44:14;21.40;47.10
81842;DHT22;71284;50.918;7.092;2023-07-13T07:46:40;21.50;46.90
81842;DHT22;71284;50.918;7.092;2023-07-13T07:49:07;21.50;47.80
81842;DHT22;71284;50.918;7.092;2023-07-13T07:51:33;21.50;47.80
81842;DHT22;71284;50.918;7.092;2023-07-13T07:54:01;21.80;47.00
81842;DHT22;71284;50.918;7.092;2023-07-13T07:56:27;21.90;46.50
81842;DHT22;71284;50.918;7.092;2023-07-13T07:58:54;21.90;46.10
81842;DHT22;71284;50.918;7.092;2023-07-13T08:01:21;22.00;46.60
81842;DHT22;71284;50.918;7.092;2023-07-13T08:03:47;22.30;46.50
81842;DHT22;71284;50.918;7.092;2023-07-13T08:06:14;22.20;46.20
81842;DHT22;71284;50.918;7.092;2023-07-13T08:08:40;22.10;46.00
81842;DHT22;71284;50.918;7.092;2023-07-13T08:11:08;22.20;45.70
81842;DHT22;71284;50.918;7.092;2023-07-13T08:13:34;22.50;45.70
81842;DHT22;71284;50.918;7.092;2023-07-13T08:16:00;22.20;45.60
81842;DHT22;71284;50.918;7.092;2023-07-13T08:18:27;22.00;46.10
81842;DHT22;71284;50.918;7.092;2023-07-13T08:20:54;22.10;46.70
81842;DHT22;71284;50.918;7.092;2023-07-13T08:23:23;22.30;47.60
81842;DHT22;71284;50.918;7.092;2023-07-13T08:25:51;22.40;45.90
81842;DHT22;71284;50.918;7.092;2023-07-13T08:28:18;22.50;45.60
81842;DHT22;71284;50.918;7.092;2023-07-13T08:30:44;22.40;45.90
81842;DHT22;71284;50.918;7.092;2023-07-13T08:33:11;22.20;46.40
81842;DHT22;71284;50.918;7.092;2023-07-13T08:35:37;22.30;45.00
81842;DHT22;71284;50.918;7.092;2023-07-13T08:38:04;22.00;45.10
81842;DHT22;71284;50.918;7.092;2023-07-13T08:40:31;22.30;44.80
81842;DHT22;71284;50.918;7.092;2023-07-13T08:42:58;22.30;44.30
81842;DHT22;71284;50.918;7.092;2023-07-13T08:48:01;22.70;44.10
81842;DHT22;71284;50.918;7.092;2023-07-13T08:50:28;22.90;44.10
81842;DHT22;71284;50.918;7.092;2023-07-13T08:52:53;23.00;43.40
81842;DHT22;71284;50.918;7.092;2023-07-13T08:55:30;23.00;43.70
81842;DHT22;71284;50.918;7.092;2023-07-13T08:58:14;23.10;43.30
81842;DHT22;71284;50.918;7.092;2023-07-13T09:00:46;22.80;44.70
81842;DHT22;71284;50.918;7.092;2023-07-13T09:03:20;23.20;43.80
81842;DHT22;71284;50.918;7.092;2023-07-13T09:05:44;23.20;43.80
81842;DHT22;71284;50.918;7.092;2023-07-13T09:10:58;23.20;41.90
81842;DHT22;71284;50.918;7.092;2023-07-13T09:14:06;23.20;42.70
81842;DHT22;71284;50.918;7.092;2023-07-13T09:16:15;23.50;42.40
81842;DHT22;71284;50.918;7.092;2023-07-13T09:18:42;23.80;43.30
81842;DHT22;71284;50.918;7.092;2023-07-13T09:21:25;24.00;41.00
81842;DHT22;71284;50.918;7.092;2023-07-13T09:23:52;23.90;41.10
81842;DHT22;71284;50.918;7.092;2023-07-13T09:26:19;23.60;41.30
81842;DHT22;71284;50.918;7.092;2023-07-13T09:28:48;23.50;41.70
81842;DHT22;71284;50.918;7.092;2023-07-13T09:31:22;23.50;41.50
81842;DHT22;71284;50.918;7.092;2023-07-13T09:33:47;23.30;42.20
81842;DHT22;71284;50.918;7.092;2023-07-13T09:36:18;23.40;42.40
81842;DHT22;71284;50.918;7.092;2023-07-13T09:38:44;23.40;42.30
81842;DHT22;71284;50.918;7.092;2023-07-13T09:41:31;23.50;43.30
81842;DHT22;71284;50.918;7.092;2023-07-13T09:44:16;23.60;41.60
81842;DHT22;71284;50.918;7.092;2023-07-13T09:46:46;23.50;42.60
81842;DHT22;71284;50.918;7.092;2023-07-13T09:49:12;23.20;42.80
81842;DHT22;71284;50.918;7.092;2023-07-13T09:51:40;23.60;42.90
81842;DHT22;71284;50.918;7.092;2023-07-13T09:54:05;24.00;42.20
81842;DHT22;71284;50.918;7.092;2023-07-13T09:56:31;24.30;40.80
81842;DHT22;71284;50.918;7.092;2023-07-13T09:58:58;24.40;40.70
81842;DHT22;71284;50.918;7.092;2023-07-13T10:01:31;24.50;39.80
81842;DHT22;71284;50.918;7.092;2023-07-13T10:03:57;24.60;40.90
81842;DHT22;71284;50.918;7.092;2023-07-13T10:06:23;24.50;39.70
81842;DHT22;71284;50.918;7.092;2023-07-13T10:08:50;24.70;39.70
81842;DHT22;71284;50.918;7.092;2023-07-13T10:11:27;24.90;39.30
81842;DHT22;71284;50.918;7.092;2023-07-13T10:13:54;24.50;39.10
81842;DHT22;71284;50.918;7.092;2023-07-13T10:16:19;23.80;41.00
81842;DHT22;71284;50.918;7.092;2023-07-13T10:18:48;24.10;40.70
81842;DHT22;71284;50.918;7.092;2023-07-13T10:21:15;24.40;41.00
81842;DHT22;71284;50.918;7.092;2023-07-13T10:23:40;24.40;39.80
81842;DHT22;71284;50.918;7.092;2023-07-13T10:26:09;24.60;38.70
81842;DHT22;71284;50.918;7.092;2023-07-13T10:28:35;24.60;39.30
81842;DHT22;71284;50.918;7.092;2023-07-13T10:31:00;25.00;38.60
81842;DHT22;71284;50.918;7.092;2023-07-13T10:33:26;24.90;38.30
81842;DHT22;71284;50.918;7.092;2023-07-13T10:35:55;24.60;38.70
81842;DHT22;71284;50.918;7.092;2023-07-13T10:38:22;24.40;39.30
81842;DHT22;71284;50.918;7.092;2023-07-13T10:40:54;24.50;39.00
81842;DHT22;71284;50.918;7.092;2023-07-13T10:43:19;24.60;38.20
81842;DHT22;71284;50.918;7.092;2023-07-13T10:45:45;24.20;39.10
81842;DHT22;71284;50.918;7.092;2023-07-13T10:48:12;24.20;39.40
81842;DHT22;71284;50.918;7.092;2023-07-13T10:50:38;24.50;38.50
81842;DHT22;71284;50.918;7.092;2023-07-13T10:53:18;24.50;38.20
81842;DHT22;71284;50.918;7.092;2023-07-13T10:56:05;24.40;39.20
81842;DHT22;71284;50.918;7.092;2023-07-13T10:58:35;24.50;38.80
81842;DHT22;71284;50.918;7.092;2023-07-13T11:01:19;24.90;38.90
81842;DHT22;71284;50.918;7.092;2023-07-13T11:03:49;25.10;38.50
81842;DHT22;71284;50.918;7.092;2023-07-13T11:06:37;25.30;37.90
81842;DHT22;71284;50.918;7.092;2023-07-13T11:09:17;25.40;38.30
81842;DHT22;71284;50.918;7.092;2023-07-13T11:11:34;25.80;37.60
81842;DHT22;71284;50.918;7.092;2023-07-13T11:14:01;26.20;36.00
81842;DHT22;71284;50.918;7.092;2023-07-13T11:16:58;26.70;35.60
81842;DHT22;71284;50.918;7.092;2023-07-13T11:19:26;26.80;35.80
81842;DHT22;71284;50.918;7.092;2023-07-13T11:27:30;26.60;35.10
81842;DHT22;71284;50.918;7.092;2023-07-13T11:29:48;26.10;36.20
81842;DHT22;71284;50.918;7.092;2023-07-13T11:32:23;25.50;36.30
81842;DHT22;71284;50.918;7.092;2023-07-13T11:34:48;25.20;37.60
81842;DHT22;71284;50.918;7.092;2023-07-13T11:37:16;25.10;37.60
81842;DHT22;71284;50.918;7.092;2023-07-13T11:39:42;25.30;37.30
81842;DHT22;71284;50.918;7.092;2023-07-13T11:42:09;25.40;37.10
81842;DHT22;71284;50.918;7.092;2023-07-13T11:44:35;25.40;38.10
81842;DHT22;71284;50.918;7.092;2023-07-13T11:47:11;25.40;37.70
81842;DHT22;71284;50.918;7.092;2023-07-13T11:49:43;25.60;38.80
81842;DHT22;71284;50.918;7.092;2023-07-13T11:52:13;25.50;37.90
81842;DHT22;71284;50.918;7.092;2023-07-13T11:54:46;25.40;38.30
81842;DHT22;71284;50.918;7.092;2023-07-13T12:00:16;25.00;38.00
81842;DHT22;71284;50.918;7.092;2023-07-13T12:02:43;24.90;37.60
81842;DHT22;71284;50.918;7.092;2023-07-13T12:05:11;24.40;38.00
81842;DHT22;71284;50.918;7.092;2023-07-13T12:07:36;24.40;39.30
81842;DHT22;71284;50.918;7.092;2023-07-13T12:10:03;24.50;39.10
81842;DHT22;71284;50.918;7.092;2023-07-13T12:12:30;24.60;38.50
81842;DHT22;71284;50.918;7.092;2023-07-13T12:14:56;24.60;37.90
81842;DHT22;71284;50.918;7.092;2023-07-13T12:17:23;24.40;38.40
81842;DHT22;71284;50.918;7.092;2023-07-13T12:19:50;23.80;39.70
81842;DHT22;71284;50.918;7.092;2023-07-13T12:22:16;24.00;39.30
81842;DHT22;71284;50.918;7.092;2023-07-13T12:24:42;23.60;39.70
81842;DHT22;71284;50.918;7.092;2023-07-13T12:27:24;24.00;39.40
81842;DHT22;71284;50.918;7.092;2023-07-13T12:29:52;24.20;39.00
81842;DHT22;71284;50.918;7.092;2023-07-13T12:32:18;24.30;37.90
81842;DHT22;71284;50.918;7.092;2023-07-13T12:34:52;24.20;36.30
81842;DHT22;71284;50.918;7.092;2023-07-13T12:37:18;24.00;36.90
81842;DHT22;71284;50.918;7.092;2023-07-13T12:39:46;24.10;37.80
81842;DHT22;71284;50.918;7.092;2023-07-13T12:42:21;24.20;37.10
81842;DHT22;71284;50.918;7.092;2023-07-13T12:44:47;24.60;37.10
81842;DHT22;71284;50.918;7.092;2023-07-13T12:47:14;24.80;36.40
81842;DHT22;71284;50.918;7.092;2023-07-13T12:49:41;25.00;36.60
81842;DHT22;71284;50.918;7.092;2023-07-13T12:52:14;25.30;36.40
81842;DHT22;71284;50.918;7.092;2023-07-13T12:54:39;25.40;35.30
81842;DHT22;71284;50.918;7.092;2023-07-13T12:57:08;24.90;35.60
81842;DHT22;71284;50.918;7.092;2023-07-13T12:59:33;25.10;36.00
81842;DHT22;71284;50.918;7.092;2023-07-13T13:01:59;25.40;36.20
81842;DHT22;71284;50.918;7.092;2023-07-13T13:04:26;25.40;36.00
81842;DHT22;71284;50.918;7.092;2023-07-13T13:07:01;25.60;35.90
81842;DHT22;71284;50.918;7.092;2023-07-13T13:09:27;25.40;35.60
81842;DHT22;71284;50.918;7.092;2023-07-13T13:11:53;25.30;36.00
81842;DHT22;71284;50.918;7.092;2023-07-13T13:14:20;25.20;36.30
81842;DHT22;71284;50.918;7.092;2023-07-13T13:16:47;25.10;36.20
81842;DHT22;71284;50.918;7.092;2023-07-13T13:19:17;24.90;35.80
81842;DHT22;71284;50.918;7.092;2023-07-13T13:21:43;24.90;34.30
81842;DHT22;71284;50.918;7.092;2023-07-13T13:24:12;25.20;34.60
81842;DHT22;71284;50.918;7.092;2023-07-13T13:26:37;25.50;35.00
81842;DHT22;71284;50.918;7.092;2023-07-13T13:29:20;26.10;33.70
81842;DHT22;71284;50.918;7.092;2023-07-13T13:31:46;26.10;32.50
81842;DHT22;71284;50.918;7.092;2023-07-13T13:34:13;27.40;32.60
81842;DHT22;71284;50.918;7.092;2023-07-13T13:36:39;29.20;29.80
81842;DHT22;71284;50.918;7.092;2023-07-13T13:39:15;30.10;28.10
81842;DHT22;71284;50.918;7.092;2023-07-13T13:41:32;31.20;28.10
81842;DHT22;71284;50.918;7.092;2023-07-13T13:43:59;32.40;25.70
81842;DHT22;71284;50.918;7.092;2023-07-13T13:46:25;32.70;25.60
81842;DHT22;71284;50.918;7.092;2023-07-13T13:48:52;33.40;25.60
81842;DHT22;71284;50.918;7.092;2023-07-13T13:51:20;32.60;25.80
81842;DHT22;71284;50.918;7.092;2023-07-13T13:53:45;33.10;25.50
81842;DHT22;71284;50.918;7.092;2023-07-13T13:56:13;32.70;25.00
81842;DHT22;71284;50.918;7.092;2023-07-13T13:58:39;32.10;25.70
81842;DHT22;71284;50.918;7.092;2023-07-13T14:01:11;32.30;25.60
81842;DHT22;71284;50.918;7.092;2023-07-13T14:03:32;32.10;27.70
81842;DHT22;71284;50.918;7.092;2023-07-13T14:05:59;31.60;27.00
81842;DHT22;71284;50.918;7.092;2023-07-13T14:08:25;31.90;27.40
81842;DHT22;71284;50.918;7.092;2023-07-13T14:10:53;32.40;26.60
81842;DHT22;71284;50.918;7.092;2023-07-13T14:13:20;32.50;26.50
81842;DHT22;71284;50.918;7.092;2023-07-13T14:15:46;31.60;26.70
81842;DHT22;71284;50.918;7.092;2023-07-13T14:18:13;30.70;27.70
81842;DHT22;71284;50.918;7.092;2023-07-13T14:20:39;29.50;29.60
81842;DHT22;71284;50.918;7.092;2023-07-13T14:23:06;29.00;29.70
81842;DHT22;71284;50.918;7.092;2023-07-13T14:25:32;28.80;29.30
81842;DHT22;71284;50.918;7.092;2023-07-13T14:27:59;28.60;30.70
81842;DHT22;71284;50.918;7.092;2023-07-13T14:30:25;28.50;31.10
81842;DHT22;71284;50.918;7.092;2023-07-13T14:32:52;28.40;31.60
81842;DHT22;71284;50.918;7.092;2023-07-13T14:35:20;27.60;30.80
81842;DHT22;71284;50.918;7.092;2023-07-13T14:37:45;27.60;31.40
81842;DHT22;71284;50.918;7.092;2023-07-13T14:40:13;27.70;31.20
81842;DHT22;71284;50.918;7.092;2023-07-13T14:42:39;27.70;30.80
81842;DHT22;71284;50.918;7.092;2023-07-13T14:47:39;27.60;31.30
81842;DHT22;71284;50.918;7.092;2023-07-13T14:50:11;27.70;31.70
81842;DHT22;71284;50.918;7.092;2023-07-13T14:52:32;27.30;31.90
81842;DHT22;71284;50.918;7.092;2023-07-13T14:54:59;27.40;31.90
81842;DHT22;71284;50.918;7.092;2023-07-13T14:57:25;27.30;31.40
81842;DHT22;71284;50.918;7.092;2023-07-13T14:59:52;26.70;31.90
81842;DHT22;71284;50.918;7.092;2023-07-13T15:02:27;27.00;32.10
81842;DHT22;71284;50.918;7.092;2023-07-13T15:04:54;27.00;32.30
81842;DHT22;71284;50.918;7.092;2023-07-13T15:07:21;27.00;32.40
81842;DHT22;71284;50.918;7.092;2023-07-13T15:09:47;26.80;31.70
81842;DHT22;71284;50.918;7.092;2023-07-13T15:12:14;26.40;32.80
81842;DHT22;71284;50.918;7.092;2023-07-13T15:14:40;26.40;33.00
81842;DHT22;71284;50.918;7.092;2023-07-13T15:17:18;26.30;32.90
81842;DHT22;71284;50.918;7.092;2023-07-13T15:19:36;26.40;33.20
81842;DHT22;71284;50.918;7.092;2023-07-13T15:22:03;26.10;33.80
81842;DHT22;71284;50.918;7.092;2023-07-13T15:24:30;26.00;34.00
81842;DHT22;71284;50.918;7.092;2023-07-13T15:26:57;26.30;33.10
81842;DHT22;71284;50.918;7.092;2023-07-13T15:29:23;26.30;33.20
81842;DHT22;71284;50.918;7.092;2023-07-13T15:31:50;26.80;31.80
81842;DHT22;71284;50.918;7.092;2023-07-13T15:34:18;27.00;32.20
81842;DHT22;71284;50.918;7.092;2023-07-13T15:36:43;26.70;32.10
81842;DHT22;71284;50.918;7.092;2023-07-13T15:39:14;26.80;31.80
81842;DHT22;71284;50.918;7.092;2023-07-13T15:41:40;26.70;32.20
81842;DHT22;71284;50.918;7.092;2023-07-13T15:44:19;27.00;32.80
81842;DHT22;71284;50.918;7.092;2023-07-13T15:46:34;26.30;32.30
81842;DHT22;71284;50.918;7.092;2023-07-13T15:49:00;26.50;32.20